Millsboro, Delaware
Current Conditions -  °F | °C
As of 11:54 AM on Monday 22 Dec 2014 (Local Time) from KGED Reporting Station
Overcast Overcast  
Wind Chill: 36°   Ceiling: 9500
Heat Index: 42°   Visibility: 8mi
Dew Point: 34°   Wind: 10mph
Humidity: 73%   Direction: 50°NE
Pressure: 30.23"   Gusts: NA
Location:  38.59°N, 75.29°W
Report Text: KGED 221654Z AUTO 05009KT 8SM SCT045 SCT060 OVC095 06/01 A3023 RMK AO2 SLP236 T00560011
Loading
Personal Weather Stations






























Interactive Weather Map New forecast layout! Learn more

10-Day Weather Forecast

Advertisements
Track Severe Weather on mobile